Time;durP1;ratioP1;P1;durP2;ratioP2;P2;SDS_P1;SDS_P2;PMS_P1;PMS_P2;Temp;Humidity;BMP_temperature;BMP_pressure;BME280_temperature;BME280_humidity;BME280_pressure;Samples;Min_cycle;Max_cycle;Signal;HPM_P1;HPM_P2
2023/03/18 00:02:51;;;;;;;;;22.25;18.75;;;;;9.84;75.10;101501.75;146616;617;45021;-71
2023/03/18 00:05:55;;;;;;;;;37.75;33.00;;;;;9.84;75.37;101499.19;146613;614;45016;-71
2023/03/18 00:08:52;;;;;;;;;30.00;27.25;;;;;9.84;75.31;101494.00;146617;603;46012;-72
2023/03/18 00:11:55;;;;;;;;;34.50;31.25;;;;;9.84;75.62;101494.87;146614;577;45916;-72
2023/03/18 00:14:53;;;;;;;;;44.75;35.50;;;;;9.83;76.17;101494.81;146618;738;45020;-74
2023/03/18 00:18:15;;;;;;;;;;;;;;;;;;;;;
2023/03/18 00:21:16;;;;;;;;;29.50;28.00;;;;;9.77;76.42;101479.75;146618;578;45020;-70
2023/03/18 00:24:11;;;;;;;;;33.75;30.50;;;;;9.70;77.01;101482.72;146612;569;45913;-70
2023/03/18 00:27:15;;;;;;;;;30.25;29.00;;;;;9.62;77.84;101484.78;146615;581;45020;-71
2023/03/18 00:30:22;;;;;;;;;26.75;21.00;;;;;9.58;76.67;101477.63;146615;643;45913;-67
2023/03/18 00:33:23;;;;;;;;;27.75;24.00;;;;;9.57;77.29;101481.03;146617;574;46010;-68
2023/03/18 00:36:24;;;;;;;;;28.50;26.25;;;;;9.57;78.28;101475.84;146614;623;45915;-67
2023/03/18 00:39:24;;;;;;;;;26.00;24.00;;;;;9.54;78.59;101474.75;146617;571;45028;-69
2023/03/18 00:42:46;;;;;;;;;;;;;;;;;;;;;
2023/03/18 00:45:51;;;;;;;;;27.25;20.00;;;;;9.53;77.81;101470.34;146616;622;45021;-72
2023/03/18 00:48:45;;;;;;;;;24.00;19.50;;;;;9.50;81.38;101471.03;146706;568;45023;-69
2023/03/18 00:51:59;;;;;;;;;22.50;16.00;;;;;9.47;81.00;101470.84;146620;645;45016;-69
2023/03/18 00:54:59;;;;;;;;;20.00;18.00;;;;;9.39;80.21;101464.25;146625;629;45020;-69
2023/03/18 00:58:01;;;;;;;;;18.25;15.75;;;;;9.34;80.01;101469.09;146614;579;47916;-72
2023/03/18 01:01:03;;;;;;;;;14.75;12.75;;;;;9.33;80.15;101471.59;146625;579;45020;-72
2023/03/18 01:04:00;;;;;;;;;17.75;17.00;;;;;9.32;79.68;101468.09;146617;576;46012;-71
2023/03/18 01:07:02;;;;;;;;;16.75;16.75;;;;;9.33;79.39;101464.72;146624;625;45020;-71
2023/03/18 01:10:05;;;;;;;;;18.50;13.75;;;;;9.38;79.26;101465.03;146618;575;45031;-70
2023/03/18 01:13:37;;;;;;;;;27.00;21.75;;;;;9.28;78.65;101437.63;146625;634;45020;-70
2023/03/18 01:16:42;;;;;;;;;29.25;24.25;;;;;9.54;78.99;101469.56;146622;573;45914;-72
2023/03/18 01:19:55;;;;;;;;;25.75;22.00;;;;;9.59;79.02;101474.22;146625;587;45021;-73
2023/03/18 01:23:03;;;;;;;;;39.75;32.50;;;;;9.62;78.27;101463.19;146618;633;45018;-71
2023/03/18 01:26:13;;;;;;;;;33.00;28.50;;;;;9.64;78.72;101466.78;146622;650;45021;-71
2023/03/18 01:29:22;;;;;;;;;28.75;25.50;;;;;9.63;78.54;101457.22;146622;563;45016;-73
2023/03/18 01:32:17;;;;;;;;;28.75;27.25;;;;;9.63;78.53;101457.22;146625;638;45020;-71
2023/03/18 01:35:17;;;;;;;;;32.50;27.50;;;;;9.60;78.94;101457.91;146619;595;45918;-71
2023/03/18 01:38:15;;;;;;;;;27.75;24.75;;;;;9.58;79.09;101448.25;146623;619;45021;-72
2023/03/18 01:41:12;;;;;;;;;25.25;21.25;;;;;9.55;79.13;101448.03;146617;615;45016;-71
2023/03/18 01:44:10;;;;;;;;;27.50;24.00;;;;;9.49;79.45;101449.41;146624;580;45020;-69
2023/03/18 01:47:07;;;;;;;;;20.25;19.00;;;;;9.42;80.26;101447.22;146617;598;45914;-69
2023/03/18 01:50:15;;;;;;;;;18.00;16.00;;;;;9.34;79.81;101448.38;146621;599;45020;-68
2023/03/18 01:53:34;;;;;;;;;20.25;18.50;;;;;9.30;79.62;101448.97;146622;619;45016;-69
2023/03/18 01:56:41;;;;;;;;;22.75;18.50;;;;;9.28;79.21;101449.66;146621;591;45021;-72
2023/03/18 01:59:52;;;;;;;;;22.50;18.75;;;;;9.23;79.19;101439.91;146621;605;45016;-71
2023/03/18 02:03:22;;;;;;;;;25.50;22.75;;;;;9.24;78.54;101443.37;146622;681;45021;-70
2023/03/18 02:06:18;;;;;;;;;23.25;19.00;;;;;9.29;79.67;101446.31;146619;573;45912;-70
2023/03/18 02:09:15;;;;;;;;;17.25;16.00;;;;;9.30;79.69;101443.81;146621;618;45020;-72
2023/03/18 02:12:32;;;;;;;;;20.50;18.25;;;;;9.32;79.35;101447.41;146621;563;45034;-72
2023/03/18 02:15:43;;;;;;;;;18.50;16.00;;;;;9.35;78.88;101438.97;146621;584;45020;-72
2023/03/18 02:19:02;;;;;;;;;;;;;;;;;;;;;
2023/03/18 02:22:40;;;;;;;;;19.00;15.50;;;;;9.41;78.48;101442.84;146622;641;45020;-70
2023/03/18 02:26:18;;;;;;;;;18.00;16.50;;;;;9.43;78.80;101441.25;146618;564;45492;-68
2023/03/18 02:29:20;;;;;;;;;32.00;25.75;;;;;9.50;79.21;101442.53;146624;612;45020;-73
2023/03/18 02:32:20;;;;;;;;;20.50;18.25;;;;;9.52;79.52;101448.72;146615;622;47016;-73
2023/03/18 02:35:16;;;;;;;;;18.75;17.25;;;;;9.52;79.17;101448.72;146621;577;45020;-72
2023/03/18 02:38:11;;;;;;;;;17.75;15.75;;;;;9.51;79.13;101449.53;146622;580;45016;-72
2023/03/18 02:41:08;;;;;;;;;24.25;21.50;;;;;9.48;79.20;101446.75;146624;595;45020;-72
2023/03/18 02:44:25;;;;;;;;;;;;;;;;;;;;;
2023/03/18 02:47:37;;;;;;;;;24.00;21.25;;;;;9.46;78.96;101463.84;146624;667;45012;-72
2023/03/18 02:50:34;;;;;;;;;22.50;20.00;;;;;9.45;79.23;101446.53;146618;629;45016;-69
2023/03/18 02:53:43;;;;;;;;;20.25;16.25;;;;;9.45;79.01;101451.72;146622;597;45020;-69
2023/03/18 02:57:04;;;;;;;;;17.50;14.25;;;;;9.40;80.22;101453.09;146620;602;45914;-67
2023/03/18 03:00:00;;;;;;;;;14.50;13.00;;;;;9.31;79.25;101452.47;146621;563;45020;-68
2023/03/18 03:03:02;;;;;;;;;;;;;;;;;;;;;
2023/03/18 03:06:25;;;;;;;;;18.75;14.50;;;;;8.86;79.08;101387.34;146626;606;45022;-70
2023/03/18 03:09:34;;;;;;;;;14.75;14.25;;;;;9.25;79.26;101450.34;146620;579;45912;-70
2023/03/18 03:12:32;;;;;;;;;18.25;15.75;;;;;9.25;79.97;101451.28;146623;658;45020;-71
2023/03/18 03:15:30;;;;;;;;;14.75;14.00;;;;;9.32;79.98;101451.69;146620;570;45017;-70
2023/03/18 03:18:34;;;;;;;;;17.25;15.25;;;;;9.36;79.49;101446.81;146622;574;45020;-69
2023/03/18 03:21:34;;;;;;;;;20.00;14.25;;;;;9.40;79.95;101448.78;146619;569;45016;-66
2023/03/18 03:24:35;;;;;;;;;19.50;16.00;;;;;9.44;80.30;101453.41;146622;660;45021;-70
2023/03/18 03:27:36;;;;;;;;;17.25;16.00;;;;;9.44;79.80;101447.34;146620;666;45016;-72
2023/03/18 03:30:34;;;;;;;;;17.25;15.00;;;;;9.43;80.04;101449.00;146622;619;45021;-68
2023/03/18 03:33:49;;;;;;;;;19.75;15.50;;;;;9.42;78.57;101459.28;146620;655;45035;-70
2023/03/18 03:36:45;;;;;;;;;19.00;15.50;;;;;9.42;79.79;101455.00;146623;611;45020;-70
2023/03/18 03:39:49;;;;;;;;;23.00;19.50;;;;;9.43;79.72;101454.19;146614;564;46914;-69
2023/03/18 03:42:53;;;;;;;;;32.25;30.25;;;;;9.46;79.70;101461.25;146624;583;45020;-71
2023/03/18 03:46:02;;;;;;;;;21.00;19.75;;;;;9.47;79.60;101460.50;146617;581;45016;-70
2023/03/18 03:48:54;;;;;;;;;18.00;18.00;;;;;9.46;79.66;101458.69;146620;630;46010;-70
2023/03/18 03:52:07;;;;;;;;;17.75;15.75;;;;;9.44;79.59;101458.59;146616;565;46012;-69
2023/03/18 03:55:29;;;;;;;;;19.75;16.00;;;;;8.33;78.77;101266.50;146621;592;45021;-68
2023/03/18 03:58:21;;;;;;;;;14.75;14.00;;;;;9.36;79.74;101451.97;146617;582;47012;-69
2023/03/18 04:01:31;;;;;;;;;13.25;12.25;;;;;9.34;79.64;101457.84;146620;578;45021;-68
2023/03/18 04:04:26;;;;;;;;;33.75;28.50;;;;;9.27;80.18;101453.06;146619;565;45016;-69
2023/03/18 04:07:30;;;;;;;;;26.25;21.00;;;;;9.22;80.08;101457.91;146618;593;45030;-68
2023/03/18 04:10:33;;;;;;;;;20.25;18.50;;;;;9.19;80.56;101457.69;146619;631;45913;-69
2023/03/18 04:13:37;;;;;;;;;24.25;22.50;;;;;9.17;80.08;101460.19;146622;563;46012;-70
2023/03/18 04:16:56;;;;;;;;;15.00;14.25;;;;;9.20;79.50;101460.41;146616;564;46012;-69
2023/03/18 04:20:16;;;;;;;;;13.50;11.75;;;;;9.22;80.43;101460.50;146620;684;46012;-71
2023/03/18 04:23:21;;;;;;;;;12.25;11.25;;;;;9.21;79.51;101462.19;146619;587;45913;-70
2023/03/18 04:26:36;;;;;;;;;13.75;12.75;;;;;9.25;80.41;101460.69;146620;569;45020;-70
2023/03/18 04:29:33;;;;;;;;;18.25;14.50;;;;;9.29;80.42;101461.84;146611;593;47916;-71
2023/03/18 04:32:39;;;;;;;;;11.25;11.00;;;;;9.32;80.17;101462.03;146622;614;46010;-71
2023/03/18 04:35:38;;;;;;;;;16.75;14.75;;;;;9.31;80.19;101465.41;146617;591;45913;-69
2023/03/18 04:38:33;;;;;;;;;15.50;11.75;;;;;9.30;80.24;101467.09;146620;597;46021;-68
2023/03/18 04:41:55;;;;;;;;;13.00;10.25;;;;;9.30;79.19;101463.63;146616;564;45913;-70
2023/03/18 04:44:51;;;;;;;;;13.50;10.25;;;;;9.29;79.74;101461.84;146625;574;45031;-72
2023/03/18 04:48:05;;;;;;;;;13.50;13.00;;;;;9.29;80.34;101459.25;146619;612;45913;-69
2023/03/18 04:51:36;;;;;;;;;14.25;14.25;;;;;9.27;79.68;101455.66;146621;598;45020;-71
2023/03/18 04:54:43;;;;;;;;;18.75;14.50;;;;;9.22;80.07;101456.25;146616;652;45021;-71
2023/03/18 04:58:09;;;;;;;;;14.75;11.75;;;;;8.09;80.54;101267.41;146621;602;45020;-70
2023/03/18 05:01:11;;;;;;;;;11.75;10.75;;;;;9.11;80.96;101457.19;146621;620;45914;-70
2023/03/18 05:04:09;;;;;;;;;8.00;8.00;;;;;9.05;80.43;101461.94;146623;578;45020;-72
2023/03/18 05:07:45;;;;;;;;;11.50;10.00;;;;;9.06;80.39;101463.72;146623;630;45018;-71
2023/03/18 05:11:01;;;;;;;;;10.50;10.50;;;;;9.07;80.49;101469.81;146624;633;45020;-73
2023/03/18 05:14:08;;;;;;;;;11.00;11.00;;;;;8.15;80.29;101308.25;146621;594;45914;-73
2023/03/18 05:17:15;;;;;;;;;9.75;9.25;;;;;9.11;80.65;101470.13;146625;666;45021;-75
2023/03/18 05:20:23;;;;;;;;;8.50;8.25;;;;;9.15;80.63;101461.75;146620;565;47016;-70
2023/03/18 05:23:16;;;;;;;;;14.00;10.25;;;;;9.17;80.70;101464.47;146625;583;45020;-69
2023/03/18 05:26:12;;;;;;;;;11.50;11.00;;;;;9.19;80.47;101462.88;146620;586;45016;-69
2023/03/18 05:29:19;;;;;;;;;11.75;9.25;;;;;9.19;80.93;101462.88;146619;645;46010;-69
2023/03/18 05:33:06;;;;;;;;;13.25;11.00;;;;;8.14;80.14;101286.72;146623;569;45918;-74
2023/03/18 05:36:26;;;;;;;;;11.25;11.25;;;;;7.87;79.60;101237.50;146625;565;45020;-73
2023/03/18 05:39:25;;;;;;;;;18.00;15.00;;;;;9.21;80.87;101464.78;146618;584;45019;-70
2023/03/18 05:42:27;;;;;;;;;20.00;17.00;;;;;9.28;80.95;101468.66;146623;586;45020;-69
2023/03/18 05:45:28;;;;;;;;;16.50;12.00;;;;;9.34;81.48;101470.78;146621;662;45016;-68
2023/03/18 05:48:27;;;;;;;;;13.25;11.25;;;;;9.35;81.10;101464.84;146620;571;46010;-68
2023/03/18 05:51:20;;;;;;;;;11.25;11.25;;;;;9.36;80.48;101466.63;146621;586;45914;-71
2023/03/18 05:54:13;;;;;;;;;16.25;14.75;;;;;9.42;80.81;101474.81;146625;576;45021;-71
2023/03/18 05:57:06;;;;;;;;;25.25;24.00;;;;;9.49;81.30;101464.06;146619;630;45016;-70
2023/03/18 05:59:58;;;;;;;;;34.25;29.25;;;;;9.58;81.55;101468.97;146619;642;45021;-70
2023/03/18 06:02:51;;;;;;;;;34.50;29.25;;;;;9.64;81.32;101471.97;146617;563;45914;-71
2023/03/18 06:05:48;;;;;;;;;40.25;32.00;;;;;9.70;80.97;101478.44;146621;600;45049;-70
2023/03/18 06:08:42;;;;;;;;;35.00;32.00;;;;;9.78;80.95;101471.19;146618;570;45017;-71
2023/03/18 06:11:44;;;;;;;;;38.00;31.50;;;;;9.88;81.07;101485.66;146613;617;46010;-70
2023/03/18 06:14:43;;;;;;;;;37.25;30.25;;;;;9.96;80.73;101484.44;146619;694;45017;-70
2023/03/18 06:18:01;;;;;;;;;35.50;31.25;;;;;10.03;81.19;101488.34;146620;569;46010;-74
2023/03/18 06:20:55;;;;;;;;;47.50;38.25;;;;;10.09;80.76;101492.25;146618;575;45914;-73
2023/03/18 06:23:53;;;;;;;;;29.00;25.00;;;;;10.14;80.25;101495.13;146621;579;45020;-73
2023/03/18 06:27:05;;;;;;;;;26.25;21.00;;;;;10.07;78.98;101480.87;146617;640;45022;-73
2023/03/18 06:30:01;;;;;;;;;26.75;25.75;;;;;10.22;79.29;101498.19;146624;664;45021;-73
2023/03/18 06:32:58;;;;;;;;;28.50;25.75;;;;;10.28;79.59;101499.56;146618;698;45016;-73
2023/03/18 06:36:12;;;;;;;;;62.25;46.00;;;;;10.36;78.60;101497.44;146624;613;45020;-73
2023/03/18 06:39:11;;;;;;;;;72.00;53.75;;;;;10.42;79.06;101489.16;146615;583;45914;-73
2023/03/18 06:42:09;;;;;;;;;52.50;41.00;;;;;10.46;79.02;101478.19;146617;618;45020;-74
2023/03/18 06:45:17;;;;;;;;;47.75;37.50;;;;;10.55;78.57;101486.53;146616;571;46012;-70
2023/03/18 06:48:28;;;;;;;;;41.50;33.50;;;;;10.63;77.98;101495.72;146624;610;45020;-70
2023/03/18 06:51:31;;;;;;;;;46.50;36.00;;;;;10.70;78.28;101495.28;146618;564;45909;-70
2023/03/18 06:54:33;;;;;;;;;49.25;40.25;;;;;10.76;78.18;101498.28;146621;650;45020;-69
2023/03/18 06:57:36;;;;;;;;;50.00;40.50;;;;;10.81;78.11;101493.34;146615;595;46017;-66
2023/03/18 07:00:41;;;;;;;;;51.00;40.00;;;;;10.82;77.70;101484.81;146621;633;45021;-73
2023/03/18 07:03:43;;;;;;;;;49.00;38.00;;;;;10.83;78.28;101502.16;146615;686;45916;-71
2023/03/18 07:06:50;;;;;;;;;50.00;39.25;;;;;10.81;77.49;101503.72;146620;587;46021;-70
2023/03/18 07:09:32;;;;;;;;;23.25;18.50;;;;;10.79;79.29;101505.34;146706;571;45022;-74
2023/03/18 07:12:27;;;;;;;;;40.50;34.25;;;;;10.80;77.24;101494.16;146616;563;45943;-74
2023/03/18 07:15:29;;;;;;;;;34.25;30.75;;;;;10.84;77.14;101501.34;146616;594;46020;-73
2023/03/18 07:18:36;;;;;;;;;34.00;28.00;;;;;10.85;76.26;101498.84;146614;633;46917;-70
2023/03/18 07:22:10;;;;;;;;;44.50;35.00;;;;;10.87;74.85;101496.34;146620;707;45020;-69
2023/03/18 07:25:12;;;;;;;;;37.75;33.00;;;;;10.88;74.61;101495.56;146616;626;45021;-71
2023/03/18 07:28:11;;;;;;;;;31.00;29.00;;;;;10.87;73.13;101496.34;146618;621;45020;-70
2023/03/18 07:31:29;;;;;;;;;33.75;29.25;;;;;10.88;73.02;101492.97;146617;628;45016;-70
2023/03/18 07:34:35;;;;;;;;;37.00;32.50;;;;;10.61;72.87;101437.66;146619;642;45022;-71
2023/03/18 07:37:36;;;;;;;;;30.75;28.00;;;;;11.00;73.36;101492.84;146614;569;45914;-70
2023/03/18 07:40:40;;;;;;;;;34.00;29.00;;;;;9.93;73.47;101293.44;146619;789;45028;-70
2023/03/18 07:43:47;;;;;;;;;38.00;32.75;;;;;11.18;73.76;101487.84;146618;628;45016;-70
2023/03/18 07:46:40;;;;;;;;;37.25;31.75;;;;;11.26;72.62;101497.00;146621;633;45021;-75
2023/03/18 07:49:35;;;;;;;;;22.00;19.50;;;;;11.28;71.40;101498.91;146616;633;45016;-77
2023/03/18 07:52:43;;;;;;;;;31.75;28.50;;;;;11.27;71.65;101499.69;146619;601;45021;-77
2023/03/18 07:55:43;;;;;;;;;31.25;27.75;;;;;11.28;71.67;101498.91;146616;655;46012;-75
2023/03/18 07:58:49;;;;;;;;;;;;;;;;;;;;;
2023/03/18 08:01:52;;;;;;;;;28.25;24.25;;;;;11.22;71.56;101497.63;146610;679;47912;-73
2023/03/18 08:04:59;;;;;;;;;33.25;27.75;;;;;11.20;72.07;101491.44;146618;565;45020;-71
2023/03/18 08:08:01;;;;;;;;;36.00;30.25;;;;;11.20;72.84;101497.53;146616;635;45017;-70
2023/03/18 08:10:48;;;;;;;;;25.00;25.00;;;;;11.22;74.42;101497.63;146706;564;45014;-69
2023/03/18 08:13:42;;;;;;;;;27.50;24.00;;;;;11.24;73.76;101501.19;146620;574;45016;-70
2023/03/18 08:16:42;;;;;;;;;32.00;27.75;;;;;11.25;72.60;101488.34;146627;579;46010;-70
2023/03/18 08:19:56;;;;;;;;;27.50;24.25;;;;;11.27;72.65;101493.59;146624;574;46012;-71
2023/03/18 08:22:57;;;;;;;;;9.50;8.25;;;;;11.29;71.86;101482.50;146625;589;45020;-70
2023/03/18 08:25:55;;;;;;;;;19.50;17.00;;;;;11.36;71.36;101488.06;146624;598;45016;-70
2023/03/18 08:29:13;;;;;;;;;22.75;20.25;;;;;11.41;71.42;101487.56;146627;624;46010;-71
2023/03/18 08:32:11;;;;;;;;;22.50;15.25;;;;;9.91;70.50;101216.44;146619;747;46915;-72
2023/03/18 08:35:10;;;;;;;;;21.00;19.00;;;;;11.55;70.72;101485.75;146627;573;45012;-70
2023/03/18 08:38:04;;;;;;;;;19.75;18.50;;;;;11.10;70.12;101394.84;146621;573;46012;-71
2023/03/18 08:41:00;;;;;;;;;23.00;22.00;;;;;11.66;69.74;101486.41;146625;660;45020;-71
2023/03/18 08:43:59;;;;;;;;;19.50;19.00;;;;;11.73;69.73;101488.56;146622;594;45031;-71
2023/03/18 08:47:20;;;;;;;;;25.00;21.25;;;;;11.80;68.41;101490.69;146625;569;45020;-71
2023/03/18 08:50:40;;;;;;;;;36.25;30.25;;;;;11.83;68.39;101492.59;146620;579;46014;-71
2023/03/18 08:53:44;;;;;;;;;26.25;23.25;;;;;11.92;71.47;101493.16;146625;633;45021;-74
2023/03/18 08:56:48;;;;;;;;;19.00;17.75;;;;;12.05;71.75;101492.16;146624;698;45014;-75
2023/03/18 09:00:03;;;;;;;;;20.75;19.25;;;;;12.13;72.34;101490.91;146625;661;46012;-75
2023/03/18 09:03:15;;;;;;;;;29.50;24.50;;;;;12.31;72.12;101512.75;146619;658;46014;-74
2023/03/18 09:06:19;;;;;;;;;25.00;22.50;;;;;12.39;69.91;101493.25;146628;657;45020;-73
2023/03/18 09:09:18;;;;;;;;;13.00;9.00;;;;;12.39;68.11;101495.84;146622;621;46012;-74
2023/03/18 09:12:18;;;;;;;;;21.00;17.00;;;;;12.40;68.05;101494.19;146626;617;46010;-75
2023/03/18 09:15:33;;;;;;;;;11.50;9.75;;;;;12.40;66.64;101495.06;146622;605;46013;-73
2023/03/18 09:18:31;;;;;;;;;8.75;8.25;;;;;12.36;65.23;101492.19;146628;610;45020;-73
2023/03/18 09:21:30;;;;;;;;;13.75;12.75;;;;;12.31;63.71;101497.16;146622;564;45916;-73
2023/03/18 09:24:24;;;;;;;;;18.50;18.00;;;;;12.26;64.06;101490.78;146623;583;45021;-73
2023/03/18 09:27:16;;;;;;;;;9.00;8.25;;;;;12.20;62.56;101493.94;146620;563;46012;-73
2023/03/18 09:30:28;;;;;;;;;8.25;8.00;;;;;11.21;63.78;101332.28;146627;602;46010;-74
2023/03/18 09:33:48;;;;;;;;;;;;;;;;;;;;;
2023/03/18 09:36:49;;;;;;;;;18.75;16.00;;;;;11.99;63.37;101483.22;146625;572;46010;-73
2023/03/18 09:39:41;;;;;;;;;5.00;5.00;;;;;11.94;62.66;101476.84;146617;580;47036;-73
2023/03/18 09:43:16;;;;;;;;;10.25;9.50;;;;;11.90;64.95;101480.09;146625;600;45020;-73
2023/03/18 09:47:00;;;;;;;;;5.00;5.00;;;;;11.75;64.40;101453.19;146623;602;45914;-73
2023/03/18 09:50:40;;;;;;;;;11.00;10.75;;;;;11.82;65.07;101477.81;146625;575;46010;-72
2023/03/18 09:54:37;;;;;;;;;6.75;5.75;;;;;11.72;65.71;101453.00;146622;569;46012;-74
2023/03/18 09:57:47;;;;;;;;;18.50;18.25;;;;;11.75;65.02;101461.88;146626;571;46010;-73
2023/03/18 10:01:10;;;;;;;;;19.25;17.00;;;;;11.25;65.74;101387.09;146621;587;45017;-74
2023/03/18 10:04:47;;;;;;;;;21.75;20.00;;;;;10.82;67.33;101298.00;146625;590;45022;-72
2023/03/18 10:08:07;;;;;;;;;22.25;20.00;;;;;11.80;66.64;101452.62;146622;584;45912;-73
2023/03/18 10:11:50;;;;;;;;;21.25;17.50;;;;;10.91;66.15;101285.59;146640;569;44020;-72
2023/03/18 10:15:47;;;;;;;;;7.75;7.75;;;;;11.06;65.44;101286.47;146637;602;45915;-75
2023/03/18 10:19:21;;;;;;;;;27.25;21.50;;;;;12.07;66.03;101451.56;146648;592;44020;-72
2023/03/18 10:22:59;;;;;;;;;26.00;22.75;;;;;10.38;66.15;101151.06;146637;610;44911;-73
2023/03/18 10:26:10;;;;;;;;;23.75;21.00;;;;;11.31;64.71;101293.09;146639;598;44020;-72
2023/03/18 10:29:20;;;;;;;;;24.00;22.75;;;;;12.27;64.70;101452.66;146637;715;44913;-73
2023/03/18 10:33:12;;;;;;;;;49.50;40.00;;;;;12.29;62.63;101451.94;146639;681;46010;-72
2023/03/18 10:37:14;;;;;;;;;43.00;35.25;;;;;11.34;62.02;101249.12;146637;569;44915;-74
2023/03/18 10:40:26;;;;;;;;;40.00;32.00;;;;;11.69;60.90;101277.06;146639;586;45010;-73
2023/03/18 10:43:44;;;;;;;;;32.50;29.75;;;;;12.36;60.82;101364.75;146637;585;44911;-75
2023/03/18 10:46:49;;;;;;;;;37.50;32.00;;;;;12.73;61.53;101430.06;146636;577;45010;-72
2023/03/18 10:50:12;;;;;;;;;31.50;28.00;;;;;11.79;62.68;101271.56;146636;608;45911;-75
2023/03/18 10:53:37;;;;;;;;;28.25;26.50;;;;;12.39;60.79;101428.22;146640;647;45008;-72
2023/03/18 10:56:37;;;;;;;;;54.00;37.75;;;;;12.19;61.79;101419.34;146635;571;45012;-74
2023/03/18 10:59:43;;;;;;;;;;;;;;;;;;;;;
2023/03/18 11:03:08;;;;;;;;;45.50;36.75;;;;;11.82;62.45;101421.53;146637;610;44016;-75
2023/03/18 11:06:19;;;;;;;;;40.25;34.25;;;;;11.59;64.58;101425.41;146641;563;45012;-75
2023/03/18 11:09:32;;;;;;;;;36.75;28.75;;;;;11.44;65.66;101422.81;146629;623;45914;-73
2023/03/18 11:12:35;;;;;;;;;26.25;21.50;;;;;11.36;65.99;101420.56;146624;569;46010;-75
2023/03/18 11:15:32;;;;;;;;;24.25;21.75;;;;;11.21;65.68;101413.66;146620;617;45914;-74
2023/03/18 11:18:33;;;;;;;;;39.50;30.00;;;;;11.12;68.17;101407.00;146625;574;45020;-73
2023/03/18 11:21:28;;;;;;;;;47.25;38.25;;;;;11.11;68.25;101413.91;146623;622;46012;-73
2023/03/18 11:24:43;;;;;;;;;33.00;28.75;;;;;11.18;68.26;101410.88;146626;587;45021;-73
2023/03/18 11:28:27;;;;;;;;;20.75;18.00;;;;;11.33;68.83;101403.09;146624;621;45014;-74
2023/03/18 11:31:21;;;;;;;;;18.00;17.75;;;;;11.51;67.02;101401.59;146624;575;46011;-73
2023/03/18 11:34:34;;;;;;;;;22.50;18.00;;;;;11.62;65.77;101385.72;146620;589;45913;-73
2023/03/18 11:37:50;;;;;;;;;17.75;14.00;;;;;11.56;64.06;101400.16;146627;569;45012;-73
2023/03/18 11:40:54;;;;;;;;;25.50;22.75;;;;;11.51;64.96;101390.31;146620;601;45914;-72
2023/03/18 11:44:17;;;;;;;;;27.00;25.50;;;;;11.51;64.89;101388.59;146619;578;46012;-73
2023/03/18 11:47:38;;;;;;;;;17.50;15.25;;;;;11.51;64.69;101385.09;146621;583;45913;-72
2023/03/18 11:50:45;;;;;;;;;20.00;15.75;;;;;11.58;64.39;101376.84;146622;585;45020;-73
2023/03/18 11:54:32;;;;;;;;;20.25;17.00;;;;;10.53;63.14;101190.84;146621;629;45919;-75
2023/03/18 11:58:08;;;;;;;;;25.00;21.00;;;;;11.53;62.33;101370.53;146624;570;46012;-73
2023/03/18 12:01:51;;;;;;;;;19.25;16.50;;;;;10.48;64.17;101192.28;146621;565;45016;-74
2023/03/18 12:05:17;;;;;;;;;22.75;21.00;;;;;11.51;63.56;101370.41;146624;563;45027;-73
2023/03/18 12:08:49;;;;;;;;;19.00;17.50;;;;;11.54;64.50;101369.69;146622;608;45914;-74
2023/03/18 12:12:20;;;;;;;;;22.50;16.25;;;;;10.67;64.63;101207.22;146638;597;45010;-73
2023/03/18 12:15:50;;;;;;;;;28.00;25.75;;;;;11.85;64.45;101368.87;146637;564;44041;-74
2023/03/18 12:19:19;;;;;;;;;20.50;18.75;;;;;12.00;63.59;101362.84;146638;576;45010;-72
2023/03/18 12:22:47;;;;;;;;;20.50;17.75;;;;;12.04;63.39;101368.22;146627;610;45914;-72
2023/03/18 12:26:34;;;;;;;;;21.75;18.25;;;;;12.07;62.43;101357.97;146634;570;47012;-74
2023/03/18 12:30:14;;;;;;;;;21.50;21.50;;;;;12.01;61.94;101362.03;146638;574;44017;-73
2023/03/18 12:33:55;;;;;;;;;20.25;18.25;;;;;10.01;60.62;101021.00;146638;591;44020;-73
2023/03/18 12:37:23;;;;;;;;;18.75;18.00;;;;;11.82;59.81;101353.09;146631;592;45914;-73
2023/03/18 12:41:06;;;;;;;;;15.00;11.75;;;;;10.03;59.97;101066.00;146640;581;44020;-73
2023/03/18 12:44:46;;;;;;;;;15.25;13.25;;;;;9.49;60.91;100992.94;146636;604;44025;-73
2023/03/18 12:48:15;;;;;;;;;14.50;12.50;;;;;9.60;60.83;101009.13;146639;584;45010;-73
2023/03/18 12:51:33;;;;;;;;;8.00;7.50;;;;;11.45;59.99;101351.00;146632;592;45912;-71
2023/03/18 12:54:45;;;;;;;;;;;;;;;;;;;;;
2023/03/18 12:58:23;;;;;;;;;14.50;13.00;;;;;9.37;60.95;101011.19;146641;595;45014;-73
2023/03/18 13:01:40;;;;;;;;;15.75;15.25;;;;;11.34;61.18;101360.78;146639;586;45010;-72
2023/03/18 13:05:01;;;;;;;;;;;;;;;;;;;;;
2023/03/18 13:08:36;;;;;;;;;9.75;8.75;;;;;11.40;60.55;101355.00;146636;662;45012;-73
2023/03/18 13:12:16;;;;;;;;;;;;;;;;;;;;;
2023/03/18 13:15:57;;;;;;;;;16.50;15.25;;;;;9.42;60.79;101014.97;146636;576;45010;-73
2023/03/18 13:19:17;;;;;;;;;;;;;;;;;;;;;
2023/03/18 13:23:02;;;;;;;;;14.25;12.00;;;;;10.29;60.24;101159.19;146639;615;45013;-74
2023/03/18 13:26:44;;;;;;;;;11.00;11.00;;;;;11.47;61.77;101344.19;146637;573;44913;-74
2023/03/18 13:30:23;;;;;;;;;17.75;16.50;;;;;11.60;61.77;101338.87;146637;574;45010;-73
2023/03/18 13:33:54;;;;;;;;;24.00;17.50;;;;;9.75;62.13;101022.97;146638;579;44016;-72
2023/03/18 13:37:49;;;;;;;;;18.75;17.00;;;;;10.12;60.72;101054.53;146640;638;44021;-72
2023/03/18 13:41:27;;;;;;;;;23.50;20.50;;;;;11.77;61.40;101335.56;146640;624;44913;-71
2023/03/18 13:44:28;;;;;;;;;22.00;19.25;;;;;11.82;61.04;101327.09;146639;607;45010;-72
2023/03/18 13:47:24;;;;;;;;;18.25;16.00;;;;;11.85;61.21;101325.59;146636;580;45913;-73
2023/03/18 13:50:57;;;;;;;;;27.75;24.25;;;;;9.32;61.93;100866.81;146640;579;44021;-72
2023/03/18 13:54:08;;;;;;;;;35.50;29.00;;;;;11.98;60.32;101322.88;146637;569;45911;-72
2023/03/18 13:57:52;;;;;;;;;20.50;19.50;;;;;10.14;60.97;100990.69;146638;586;44022;-73
2023/03/18 14:01:08;;;;;;;;;22.25;17.00;;;;;12.04;60.67;101318.81;146634;563;45911;-73
2023/03/18 14:04:29;;;;;;;;;45.00;35.50;;;;;12.14;60.00;101316.78;146640;566;44022;-73
2023/03/18 14:07:53;;;;;;;;;14.75;14.00;;;;;12.16;58.90;101309.97;146635;597;45910;-73
2023/03/18 14:11:27;;;;;;;;;18.25;15.50;;;;;12.14;58.93;101318.50;146625;633;46010;-72
2023/03/18 14:15:30;;;;;;;;;13.50;11.50;;;;;10.46;58.76;101030.53;146621;662;45016;-75
2023/03/18 14:18:38;;;;;;;;;11.50;11.00;;;;;12.08;59.36;101312.97;146626;668;46013;-74
2023/03/18 14:21:40;;;;;;;;;23.25;22.75;;;;;12.02;58.55;101317.03;146622;598;45914;-72
2023/03/18 14:24:38;;;;;;;;;40.75;31.50;;;;;11.99;59.23;101311.69;146625;566;45020;-73
2023/03/18 14:27:36;;;;;;;;;18.50;18.50;;;;;11.96;58.22;101308.00;146618;571;46014;-72
2023/03/18 14:31:16;;;;;;;;;18.50;18.00;;;;;11.95;59.51;101314.91;146619;567;46012;-72
2023/03/18 14:35:05;;;;;;;;;16.25;11.00;;;;;10.10;59.44;100978.38;146622;685;45016;-73
2023/03/18 14:38:27;;;;;;;;;34.25;30.00;;;;;11.91;60.26;101301.66;146625;564;46010;-73
2023/03/18 14:41:45;;;;;;;;;10.75;8.25;;;;;12.17;59.98;101301.34;146619;571;45912;-74
2023/03/18 14:45:34;;;;;;;;;17.75;16.00;;;;;10.40;60.01;100950.75;146624;563;46010;-74
2023/03/18 14:48:44;;;;;;;;;9.75;9.50;;;;;12.57;59.19;101293.06;146622;578;45912;-75
2023/03/18 14:51:44;;;;;;;;;8.50;8.00;;;;;11.90;57.87;101147.47;146625;566;45998;-72
2023/03/18 14:54:49;;;;;;;;;13.00;13.00;;;;;12.90;57.00;101293.94;146622;622;46012;-74
2023/03/18 14:58:05;;;;;;;;;13.00;10.00;;;;;12.98;56.74;101294.31;146621;602;46010;-73